Time;durP1;ratioP1;P1;durP2;ratioP2;P2;SDS_P1;SDS_P2;PMS_P1;PMS_P2;Temp;Humidity;BMP_temperature;BMP_pressure;BME280_temperature;BME280_humidity;BME280_pressure;Samples;Min_cycle;Max_cycle;Signal;HPM_P1;HPM_P2
2023/03/11 00:02:03;;;;;;;24.80;14.30;;;;;;;5.41;67.34;99032.70;108111;1254;72008;-65
2023/03/11 00:04:32;;;;;;;24.90;14.40;;;;;;;5.40;67.41;99031.66;108093;1258;73898;-66
2023/03/11 00:07:00;;;;;;;21.40;13.50;;;;;;;5.38;67.45;99030.73;108077;1254;61231;-67
2023/03/11 00:09:32;;;;;;;22.30;14.00;;;;;;;5.37;67.51;99028.46;108105;1258;61856;-65
2023/03/11 00:12:02;;;;;;;23.80;13.90;;;;;;;5.36;67.52;99023.96;107998;1254;75866;-67
2023/03/11 00:14:32;;;;;;;24.70;14.70;;;;;;;5.33;67.63;99024.73;108083;1253;72148;-66
2023/03/11 00:17:00;;;;;;;21.20;13.10;;;;;;;5.32;67.71;99022.23;108084;1254;71716;-66
2023/03/11 00:19:29;;;;;;;22.20;13.20;;;;;;;5.31;67.76;99017.42;107989;1254;62407;-67
2023/03/11 00:21:57;;;;;;;21.40;12.80;;;;;;;5.31;67.82;99016.11;107909;1254;61129;-65
2023/03/11 00:24:25;;;;;;;21.20;12.90;;;;;;;5.33;67.86;99015.05;108143;1254;74987;-64
2023/03/11 00:26:54;;;;;;;18.60;12.10;;;;;;;5.35;67.84;99011.51;108103;1254;73978;-64
2023/03/11 00:29:22;;;;;;;22.60;13.50;;;;;;;5.37;67.90;99006.48;108065;1254;74298;-65
2023/03/11 00:31:51;;;;;;;21.30;13.00;;;;;;;5.36;67.84;99003.83;108039;1258;61386;-64
2023/03/11 00:34:20;;;;;;;22.80;13.40;;;;;;;5.34;67.85;99002.66;108015;1254;60630;-65
2023/03/11 00:36:49;;;;;;;18.10;11.40;;;;;;;5.34;67.85;98997.32;108128;1254;74835;-63
2023/03/11 00:39:18;;;;;;;20.50;12.10;;;;;;;5.33;67.75;98993.45;108039;1254;73149;-64
2023/03/11 00:41:49;;;;;;;21.60;12.20;;;;;;;5.31;67.85;98993.50;109234;1254;71987;-65
2023/03/11 00:44:17;;;;;;;18.00;11.30;;;;;;;5.30;67.82;98991.59;108242;1254;60236;-63
2023/03/11 00:46:46;;;;;;;19.70;12.20;;;;;;;5.30;67.86;98981.42;108041;1254;61436;-64
2023/03/11 00:49:14;;;;;;;20.80;12.20;;;;;;;5.32;67.93;98977.93;108062;1254;74943;-65
2023/03/11 00:51:43;;;;;;;18.60;11.20;;;;;;;5.34;67.94;98970.52;107991;1254;71687;-64
2023/03/11 00:54:13;;;;;;;18.90;10.90;;;;;;;5.33;67.96;98963.84;107940;1259;72920;-64
2023/03/11 00:56:42;;;;;;;18.50;11.80;;;;;;;5.31;68.04;98958.87;108029;1254;61112;-65
2023/03/11 00:59:12;;;;;;;18.50;11.80;;;;;;;5.32;68.06;98957.06;108116;1254;61183;-64
2023/03/11 01:01:40;;;;;;;17.40;11.00;;;;;;;5.30;68.00;98951.20;107945;1254;74891;-65
2023/03/11 01:04:10;;;;;;;17.00;11.40;;;;;;;5.30;68.00;98945.20;107952;1254;73974;-63
2023/03/11 01:06:39;;;;;;;18.10;11.10;;;;;;;5.31;67.92;98942.63;108074;1254;72895;-64
2023/03/11 01:09:13;;;;;;;17.50;10.80;;;;;;;5.29;67.85;98937.16;108060;1254;61827;-64
2023/03/11 01:11:43;;;;;;;18.40;11.60;;;;;;;5.27;67.79;98936.46;108118;1254;61255;-64
2023/03/11 01:14:14;;;;;;;18.40;10.70;;;;;;;5.23;67.72;98933.55;108409;1254;74930;-65
2023/03/11 01:16:45;;;;;;;20.30;11.80;;;;;;;5.18;67.76;98934.05;108067;1259;73012;-63
2023/03/11 01:19:18;;;;;;;19.80;11.10;;;;;;;5.17;67.82;98933.27;108030;1254;73930;-64
2023/03/11 01:21:47;;;;;;;17.30;11.00;;;;;;;5.15;67.79;98934.68;108053;1256;61240;-64
2023/03/11 01:24:16;;;;;;;17.80;11.20;;;;;;;5.10;67.84;98932.92;108080;1254;61244;-64
2023/03/11 01:26:47;;;;;;;17.10;10.50;;;;;;;5.07;67.94;98927.84;108148;1254;75545;-64
2023/03/11 01:29:17;;;;;;;16.80;11.00;;;;;;;5.10;67.94;98925.34;108143;1254;73007;-64
2023/03/11 01:31:46;;;;;;;17.80;11.20;;;;;;;5.07;67.93;98925.20;108067;1257;73154;-65
2023/03/11 01:34:14;;;;;;;19.50;11.60;;;;;;;5.03;67.94;98920.46;108032;1254;62386;-63
2023/03/11 01:36:46;;;;;;;17.20;10.80;;;;;;;5.00;67.99;98917.28;108121;1254;61128;-63
2023/03/11 01:39:14;;;;;;;17.40;10.70;;;;;;;4.95;67.97;98919.65;108072;1254;74117;-64
2023/03/11 01:41:43;;;;;;;17.20;10.50;;;;;;;4.91;68.02;98922.34;108025;1254;73684;-64
2023/03/11 01:44:13;;;;;;;16.90;10.20;;;;;;;4.88;68.21;98917.09;108289;1254;72492;-64
2023/03/11 01:46:51;;;;;;;16.90;10.60;;;;;;;4.85;68.20;98917.30;107990;1254;61130;-65
2023/03/11 01:49:29;;;;;;;15.30;10.00;;;;;;;4.83;68.39;98912.25;108026;1254;61545;-65
2023/03/11 01:51:59;;;;;;;16.20;9.70;;;;;;;4.80;68.38;98906.21;108000;1257;74615;-64
2023/03/11 01:54:38;;;;;;;16.00;10.30;;;;;;;4.76;68.47;98902.40;108029;1254;72177;-63
2023/03/11 01:57:08;;;;;;;16.30;10.10;;;;;;;4.75;68.59;98904.03;107929;1254;71823;-63
2023/03/11 01:59:44;;;;;;;16.70;9.30;;;;;;;4.75;68.65;98900.48;108064;1252;62409;-62
2023/03/11 02:02:15;;;;;;;16.90;9.80;;;;;;;4.75;68.75;98898.90;107925;1254;61517;-66
2023/03/11 02:04:44;;;;;;;14.60;9.70;;;;;;;4.75;68.82;98900.02;107897;1254;74920;-64
2023/03/11 02:07:13;;;;;;;15.90;9.70;;;;;;;4.75;69.05;98895.30;107961;1254;72868;-64
2023/03/11 02:09:48;;;;;;;15.80;10.10;;;;;;;4.75;69.07;98890.48;107952;1254;71876;-65
2023/03/11 02:12:19;;;;;;;14.70;9.80;;;;;;;4.77;69.19;98883.98;107981;1254;61230;-63
2023/03/11 02:14:49;;;;;;;15.30;10.70;;;;;;;4.78;69.27;98880.30;107949;1254;61289;-63
2023/03/11 02:17:21;;;;;;;15.50;9.10;;;;;;;4.80;69.24;98881.66;107975;1259;74739;-64
2023/03/11 02:19:57;;;;;;;14.80;9.10;;;;;;;4.81;69.30;98880.84;107935;1254;73980;-64
2023/03/11 02:22:32;;;;;;;15.50;10.10;;;;;;;4.81;69.28;98878.48;108104;1254;72439;-64
2023/03/11 02:25:08;;;;;;;14.40;9.20;;;;;;;4.82;69.25;98878.34;108117;1254;61853;-64
2023/03/11 02:27:40;;;;;;;15.90;10.00;;;;;;;4.83;69.27;98875.75;108120;1254;61097;-64
2023/03/11 02:30:11;;;;;;;16.50;10.30;;;;;;;4.84;69.19;98872.11;108008;1254;75292;-64
2023/03/11 02:32:41;;;;;;;16.80;10.30;;;;;;;4.83;69.19;98869.98;108058;1254;73521;-64
2023/03/11 02:35:10;;;;;;;15.20;10.30;;;;;;;4.85;69.25;98870.41;107987;1254;72290;-64
2023/03/11 02:37:46;;;;;;;15.50;9.60;;;;;;;4.89;69.30;98870.69;108052;1254;61808;-64
2023/03/11 02:40:21;;;;;;;15.20;9.20;;;;;;;4.90;69.22;98870.55;107961;1254;61103;-64
2023/03/11 02:43:03;;;;;;;14.00;9.20;;;;;;;4.93;69.30;98870.85;108112;1254;73710;-64
2023/03/11 02:45:33;;;;;;;14.10;9.50;;;;;;;4.96;69.30;98867.73;107986;1252;73841;-64
2023/03/11 02:48:04;;;;;;;14.70;9.80;;;;;;;4.99;69.36;98867.36;108053;1254;71790;-64
2023/03/11 02:50:35;;;;;;;13.50;8.70;;;;;;;5.03;69.35;98863.73;107983;1253;61281;-65
2023/03/11 02:53:05;;;;;;;16.20;9.50;;;;;;;5.07;69.39;98866.02;108166;1254;60390;-64
2023/03/11 02:55:34;;;;;;;13.50;9.60;;;;;;;5.10;69.51;98868.62;108059;1254;75335;-64
2023/03/11 02:58:03;;;;;;;15.30;9.80;;;;;;;5.16;69.49;98866.04;107997;1254;73673;-63
2023/03/11 03:00:33;;;;;;;14.70;9.80;;;;;;;5.21;69.38;98863.55;107972;1254;72038;-64
2023/03/11 03:03:05;;;;;;;13.70;9.50;;;;;;;5.24;69.54;98856.58;108076;1254;62052;-64
2023/03/11 03:05:33;;;;;;;14.10;9.30;;;;;;;5.28;69.48;98849.69;107996;1258;61141;-64
2023/03/11 03:08:02;;;;;;;14.50;9.00;;;;;;;5.31;69.40;98845.45;108048;1254;73933;-64
2023/03/11 03:10:31;;;;;;;12.00;8.80;;;;;;;5.33;69.36;98841.11;107950;1254;73417;-64
2023/03/11 03:13:01;;;;;;;13.00;8.30;;;;;;;5.32;69.29;98836.98;107986;1254;72882;-64
2023/03/11 03:15:32;;;;;;;12.50;8.30;;;;;;;5.29;69.19;98833.92;107978;1254;60994;-64
2023/03/11 03:18:02;;;;;;;13.10;8.90;;;;;;;5.27;69.18;98829.36;108071;1254;61207;-64
2023/03/11 03:20:35;;;;;;;13.60;9.00;;;;;;;5.26;69.21;98823.59;107976;1254;75810;-64
2023/03/11 03:23:05;;;;;;;13.50;9.70;;;;;;;5.24;69.10;98825.77;107958;1254;70448;-64
2023/03/11 03:25:34;;;;;;;16.00;10.40;;;;;;;5.23;69.17;98817.88;108090;1254;70819;-64
2023/03/11 03:28:05;;;;;;;15.80;9.80;;;;;;;5.23;69.25;98818.04;108020;1254;61417;-64
2023/03/11 03:30:35;;;;;;;12.90;9.50;;;;;;;5.24;69.38;98815.08;108033;1254;61093;-64
2023/03/11 03:33:06;;;;;;;14.20;9.40;;;;;;;5.27;69.28;98809.73;107909;1254;75707;-64
2023/03/11 03:35:40;;;;;;;14.30;10.00;;;;;;;5.30;69.36;98802.74;108117;1254;72481;-64
2023/03/11 03:38:19;;;;;;;13.80;9.50;;;;;;;5.29;69.24;98794.63;107976;1254;72916;-64
2023/03/11 03:40:48;;;;;;;14.80;9.50;;;;;;;5.29;69.31;98794.31;107918;1254;61192;-64
2023/03/11 03:43:19;;;;;;;14.50;9.60;;;;;;;5.27;69.26;98793.58;108044;1254;61085;-64
2023/03/11 03:45:57;;;;;;;15.80;10.50;;;;;;;5.28;69.35;98791.77;107947;1254;73856;-64
2023/03/11 03:48:29;;;;;;;16.10;10.50;;;;;;;5.30;69.24;98781.55;108074;1254;72925;-64
2023/03/11 03:51:05;;;;;;;15.80;10.30;;;;;;;5.32;69.35;98777.10;107917;1254;73868;-63
2023/03/11 03:53:35;;;;;;;15.80;10.20;;;;;;;5.33;69.31;98773.35;108119;1254;61205;-64
2023/03/11 03:56:11;;;;;;;16.50;10.30;;;;;;;5.34;69.34;98766.14;108289;1254;61505;-66
2023/03/11 03:58:40;;;;;;;15.50;10.60;;;;;;;5.35;69.32;98760.01;108090;1254;74831;-63
2023/03/11 04:01:09;;;;;;;15.50;11.00;;;;;;;5.36;69.45;98755.39;108126;1254;72115;-63
2023/03/11 04:03:38;;;;;;;15.50;10.60;;;;;;;5.40;69.46;98750.31;108013;1254;71295;-64
2023/03/11 04:06:28;;;;;;;15.90;10.90;;;;;;;5.44;69.30;98747.29;108098;1254;62265;-64
2023/03/11 04:09:09;;;;;;;14.60;10.50;;;;;;;5.46;69.22;98747.11;108014;1254;61877;-64
2023/03/11 04:11:40;;;;;;;16.30;10.90;;;;;;;5.45;69.27;98737.48;107990;1259;74780;-64
2023/03/11 04:14:10;;;;;;;15.90;11.20;;;;;;;5.44;69.18;98735.37;108024;1259;72712;-64
2023/03/11 04:16:45;;;;;;;15.60;11.00;;;;;;;5.44;69.15;98734.63;108063;1254;72425;-63
2023/03/11 04:19:14;;;;;;;15.80;11.30;;;;;;;5.44;69.12;98724.46;108123;1254;61221;-66
2023/03/11 04:21:42;;;;;;;16.20;11.40;;;;;;;5.45;69.13;98723.61;107935;1254;61312;-65
2023/03/11 04:24:17;;;;;;;15.50;11.00;;;;;;;5.46;69.09;98717.61;108052;1254;73888;-64
2023/03/11 04:26:46;;;;;;;17.50;12.20;;;;;;;5.45;68.97;98714.92;108001;1254;70968;-63
2023/03/11 04:29:16;;;;;;;19.00;13.00;;;;;;;5.41;69.06;98716.67;107940;1254;72136;-64
2023/03/11 04:31:48;;;;;;;18.50;12.30;;;;;;;5.40;69.07;98713.24;108064;1254;61093;-64
2023/03/11 04:34:20;;;;;;;17.80;11.30;;;;;;;5.42;69.12;98708.41;108036;1256;61090;-64
2023/03/11 04:36:52;;;;;;;16.90;11.80;;;;;;;5.42;69.08;98708.83;107968;1254;74562;-65
2023/03/11 04:39:23;;;;;;;17.80;12.20;;;;;;;5.40;69.07;98707.36;108056;1254;72630;-63
2023/03/11 04:41:54;;;;;;;18.80;12.70;;;;;;;5.40;69.18;98707.79;104149;1254;5255138;-64
2023/03/11 04:44:23;;;;;;;20.10;13.00;;;;;;;5.43;69.15;98707.83;108031;1254;61441;-64
2023/03/11 04:46:54;;;;;;;17.00;11.20;;;;;;;5.44;69.14;98704.33;108144;1254;61324;-64
2023/03/11 04:49:23;;;;;;;18.70;12.30;;;;;;;5.42;68.90;98701.48;108102;1254;73680;-65
2023/03/11 04:51:51;;;;;;;15.80;11.40;;;;;;;5.38;68.99;98697.14;108051;1255;70639;-64
2023/03/11 04:54:21;;;;;;;15.50;10.70;;;;;;;5.36;68.83;98692.92;108004;1256;72329;-64
2023/03/11 04:56:50;;;;;;;18.50;12.50;;;;;;;5.34;68.86;98686.25;108046;1254;61253;-64
2023/03/11 04:59:25;;;;;;;17.70;11.50;;;;;;;5.36;69.00;98677.98;108035;1254;61231;-64
2023/03/11 05:01:54;;;;;;;16.90;12.10;;;;;;;5.39;69.02;98677.02;108026;1254;74653;-65
2023/03/11 05:04:22;;;;;;;15.90;10.80;;;;;;;5.46;69.06;98664.30;107974;1254;72811;-65
2023/03/11 05:06:53;;;;;;;17.50;12.20;;;;;;;5.51;69.14;98658.20;108068;1254;71870;-66
2023/03/11 05:09:24;;;;;;;17.90;12.30;;;;;;;5.58;69.19;98653.73;108098;1254;61094;-64
2023/03/11 05:11:53;;;;;;;17.30;11.60;;;;;;;5.64;69.15;98656.02;108114;1254;62210;-64
2023/03/11 05:14:28;;;;;;;16.60;11.20;;;;;;;5.75;69.13;98649.26;108071;1259;75371;-64
2023/03/11 05:16:58;;;;;;;16.10;11.20;;;;;;;5.83;69.10;98644.98;108136;1254;71601;-64
2023/03/11 05:19:29;;;;;;;16.70;11.10;;;;;;;5.88;68.84;98642.04;108070;1254;72418;-64
2023/03/11 05:21:58;;;;;;;16.10;11.60;;;;;;;5.95;68.78;98640.44;107953;1254;62153;-64
2023/03/11 05:24:27;;;;;;;19.40;12.80;;;;;;;6.01;68.68;98633.48;108011;1254;61240;-64
2023/03/11 05:26:56;;;;;;;17.80;12.00;;;;;;;6.06;68.45;98628.46;108142;1254;72586;-64
2023/03/11 05:29:58;;;;;;;15.50;11.00;;;;;;;6.09;68.27;98627.85;108091;1254;72373;-64
2023/03/11 05:32:27;;;;;;;15.00;11.20;;;;;;;6.15;68.06;98625.38;108017;1254;73919;-63
2023/03/11 05:34:56;;;;;;;17.60;12.30;;;;;;;6.15;67.75;98620.13;108089;1254;61205;-64
2023/03/11 05:37:25;;;;;;;19.50;12.50;;;;;;;6.19;67.67;98617.29;108096;1257;61096;-64
2023/03/11 05:39:58;;;;;;;17.00;11.70;;;;;;;6.28;67.60;98614.06;108055;1258;75350;-63
2023/03/11 05:42:27;;;;;;;17.60;13.00;;;;;;;6.37;67.40;98613.69;108120;1259;72377;-63
2023/03/11 05:44:56;;;;;;;18.50;12.50;;;;;;;6.44;67.24;98610.16;108079;1259;72099;-63
2023/03/11 05:47:27;;;;;;;19.50;13.20;;;;;;;6.52;66.97;98603.96;108075;1254;61227;-64
2023/03/11 05:49:56;;;;;;;17.10;11.90;;;;;;;6.55;66.64;98603.83;108046;1254;61299;-64
2023/03/11 05:52:25;;;;;;;16.20;11.90;;;;;;;6.55;66.29;98601.96;107971;1255;72455;-64
2023/03/11 05:54:54;;;;;;;16.70;12.90;;;;;;;6.53;66.16;98603.63;108140;1254;71269;-64
2023/03/11 05:57:29;;;;;;;18.30;13.10;;;;;;;6.53;66.06;98604.64;108033;1256;71825;-64
2023/03/11 05:59:58;;;;;;;15.70;12.30;;;;;;;6.54;66.01;98603.35;108118;1254;61663;-65
2023/03/11 06:02:26;;;;;;;18.90;13.60;;;;;;;6.54;65.84;98602.77;108111;1258;61189;-64
2023/03/11 06:04:56;;;;;;;17.40;12.70;;;;;;;6.56;65.84;98602.92;108005;1254;74921;-65
2023/03/11 06:07:24;;;;;;;17.70;12.90;;;;;;;6.58;65.73;98603.16;108131;1255;73732;-63
2023/03/11 06:09:53;;;;;;;19.60;13.30;;;;;;;6.60;65.66;98603.52;108017;1254;72956;-65
2023/03/11 06:12:24;;;;;;;16.90;12.60;;;;;;;6.64;65.71;98599.98;108039;1254;61439;-64
2023/03/11 06:15:08;;;;;;;17.70;13.10;;;;;;;6.67;65.67;98603.08;108034;1254;61320;-66
2023/03/11 06:17:36;;;;;;;16.70;12.30;;;;;;;6.69;65.65;98602.43;108067;1254;72952;-65
2023/03/11 06:20:06;;;;;;;18.70;13.60;;;;;;;6.71;65.60;98595.42;107943;1254;72161;-63
2023/03/11 06:22:37;;;;;;;17.30;13.00;;;;;;;6.75;65.60;98596.34;107956;1254;71878;-65
2023/03/11 06:25:08;;;;;;;16.80;12.70;;;;;;;6.81;65.68;98592.18;107998;1254;61472;-64
2023/03/11 06:27:38;;;;;;;17.00;12.80;;;;;;;6.87;65.69;98587.46;108051;1257;61139;-65
2023/03/11 06:30:09;;;;;;;17.80;13.40;;;;;;;6.90;65.56;98584.19;108159;1254;74673;-64
2023/03/11 06:32:49;;;;;;;;;;;;;;;6.91;65.44;98577.70;108078;1259;74073;-65
2023/03/11 06:35:17;;;;;;;19.10;13.60;;;;;;;6.92;65.50;98575.00;107910;1254;73101;-64
2023/03/11 06:37:46;;;;;;;19.60;14.30;;;;;;;6.95;65.56;98568.48;108168;1254;61192;-65
2023/03/11 06:40:15;;;;;;;20.40;14.70;;;;;;;7.02;65.66;98560.13;108040;1254;61122;-65
2023/03/11 06:42:46;;;;;;;20.90;15.00;;;;;;;7.12;65.60;98561.23;107995;1254;75889;-64
2023/03/11 06:45:15;;;;;;;;;;;;;;;7.23;65.57;98559.30;108038;1254;72821;-64
2023/03/11 06:47:47;;;;;;;18.80;13.50;;;;;;;7.38;65.60;98555.42;108069;1254;70875;-65
2023/03/11 06:50:17;;;;;;;18.70;13.10;;;;;;;7.50;65.47;98545.92;107963;1254;62394;-65
2023/03/11 06:52:46;;;;;;;19.70;14.10;;;;;;;7.59;65.28;98537.92;108089;1258;61150;-66
2023/03/11 06:55:14;;;;;;;18.80;13.00;;;;;;;7.68;65.15;98534.09;108016;1256;73942;-64
2023/03/11 06:57:44;;;;;;;19.60;14.30;;;;;;;7.80;65.17;98528.23;107855;1259;73203;-64
2023/03/11 07:00:14;;;;;;;19.30;13.30;;;;;;;7.92;65.04;98523.75;107974;1258;71508;-64
2023/03/11 07:02:47;;;;;;;20.10;14.30;;;;;;;8.08;64.95;98517.82;107923;1259;62146;-63
2023/03/11 07:05:16;;;;;;;20.80;15.10;;;;;;;8.21;64.70;98515.11;108015;1258;61153;-65
2023/03/11 07:07:45;;;;;;;19.50;14.00;;;;;;;8.34;64.56;98514.90;108144;1254;75886;-65
2023/03/11 07:10:19;;;;;;;20.70;15.10;;;;;;;8.47;64.41;98514.91;107976;1254;73247;-64
2023/03/11 07:12:49;;;;;;;19.60;14.70;;;;;;;8.59;64.30;98511.70;107959;1258;72415;-65
2023/03/11 07:15:19;;;;;;;21.80;15.60;;;;;;;8.70;63.95;98510.35;108084;1254;61132;-63
2023/03/11 07:17:49;;;;;;;20.20;15.60;;;;;;;8.79;63.67;98507.05;108120;1254;61991;-65
2023/03/11 07:20:18;;;;;;;21.20;16.10;;;;;;;8.84;63.26;98501.09;108152;1254;74341;-64
2023/03/11 07:22:47;;;;;;;21.40;16.00;;;;;;;8.86;63.16;98494.20;108130;1259;70696;-64
2023/03/11 07:25:15;;;;;;;20.50;14.60;;;;;;;8.87;63.08;98489.00;108145;1254;71827;-64
2023/03/11 07:27:45;;;;;;;19.60;14.90;;;;;;;8.88;63.07;98482.74;108160;1256;61690;-64
2023/03/11 07:30:14;;;;;;;21.90;16.00;;;;;;;8.92;63.08;98476.81;108051;1259;61225;-64
2023/03/11 07:32:44;;;;;;;19.80;14.80;;;;;;;8.95;63.06;98476.55;108168;1254;73636;-64
2023/03/11 07:35:12;;;;;;;20.80;14.80;;;;;;;8.94;63.06;98475.45;108033;1254;72699;-64
2023/03/11 07:37:43;;;;;;;18.70;14.40;;;;;;;8.92;63.17;98465.23;108094;1258;72985;-64
2023/03/11 07:40:12;;;;;;;20.10;14.50;;;;;;;8.92;63.14;98457.55;108072;1254;61555;-63
2023/03/11 07:42:40;;;;;;;19.50;15.20;;;;;;;8.93;63.20;98456.88;108062;1256;61145;-64
2023/03/11 07:45:10;;;;;;;19.10;14.60;;;;;;;8.90;63.31;98449.48;108013;1254;74860;-64
2023/03/11 07:47:39;;;;;;;20.50;15.60;;;;;;;8.88;63.31;98442.79;108004;1259;73758;-65
2023/03/11 07:50:08;;;;;;;19.70;13.70;;;;;;;8.86;63.43;98437.13;108039;1257;71448;-64
2023/03/11 07:52:37;;;;;;;16.00;12.80;;;;;;;8.87;63.66;98430.75;108016;1256;61418;-63
2023/03/11 07:55:10;;;;;;;17.80;13.30;;;;;;;8.93;63.93;98421.74;107898;1259;61132;-63
2023/03/11 07:57:39;;;;;;;21.20;15.50;;;;;;;8.94;64.13;98417.09;108023;1254;73850;-61
2023/03/11 08:00:09;;;;;;;19.90;14.60;;;;;;;8.91;64.59;98411.45;107965;1254;71706;-64
2023/03/11 08:02:41;;;;;;;20.00;15.40;;;;;;;8.88;65.00;98406.72;108041;1257;73232;-64
2023/03/11 08:05:10;;;;;;;20.40;15.80;;;;;;;8.86;65.53;98393.19;108009;1254;61390;-65
2023/03/11 08:07:38;;;;;;;20.30;14.70;;;;;;;8.84;65.87;98372.40;108119;1254;64177;-65
2023/03/11 08:10:09;;;;;;;21.10;15.80;;;;;;;8.78;66.00;98365.08;108086;1254;75192;-64
2023/03/11 08:12:39;;;;;;;23.00;16.00;;;;;;;8.74;66.65;98372.14;108060;1260;72457;-65
2023/03/11 08:15:09;;;;;;;20.60;15.00;;;;;;;8.72;67.10;98373.20;108037;1259;71680;-64
2023/03/11 08:17:40;;;;;;;18.20;14.80;;;;;;;8.66;67.27;98367.88;108036;1254;61670;-65
2023/03/11 08:20:10;;;;;;;20.20;14.80;;;;;;;8.73;67.12;98357.80;108020;1254;61530;-64
2023/03/11 08:22:41;;;;;;;18.20;13.80;;;;;;;8.74;67.32;98348.35;108071;1259;74883;-63
2023/03/11 08:25:24;;;;;;;18.00;14.10;;;;;;;8.59;67.69;98350.15;108077;1255;73041;-63
2023/03/11 08:27:54;;;;;;;18.50;14.10;;;;;;;8.53;67.94;98343.63;107956;1254;72929;-64
2023/03/11 08:30:23;;;;;;;18.20;14.20;;;;;;;8.50;68.11;98340.66;107999;1253;62496;-65
2023/03/11 08:33:03;;;;;;;18.80;14.20;;;;;;;8.48;68.46;98347.63;108104;1254;61169;-63
2023/03/11 08:35:32;;;;;;;20.20;14.60;;;;;;;8.45;68.67;98353.19;108021;1254;74107;-64
2023/03/11 08:38:02;;;;;;;19.80;15.10;;;;;;;8.44;68.95;98346.58;108083;1254;74169;-64
2023/03/11 08:40:30;;;;;;;16.90;13.10;;;;;;;8.37;69.15;98355.31;108094;1254;72090;-65
2023/03/11 08:42:59;;;;;;;19.10;14.40;;;;;;;8.27;69.43;98352.08;108049;1254;61816;-63
2023/03/11 08:45:28;;;;;;;23.30;16.30;;;;;;;8.16;69.54;98354.52;107994;1254;61124;-63
2023/03/11 08:47:57;;;;;;;22.10;15.20;;;;;;;8.08;69.92;98340.36;107904;1259;72710;-64
2023/03/11 08:50:25;;;;;;;20.20;15.10;;;;;;;8.07;69.94;98336.61;108071;1254;72330;-64
2023/03/11 08:52:54;;;;;;;25.10;17.10;;;;;;;8.07;70.09;98332.73;108051;1254;71566;-64
2023/03/11 08:55:26;;;;;;;21.80;17.00;;;;;;;7.90;70.70;98331.55;108102;1254;61347;-64
2023/03/11 08:57:55;;;;;;;23.30;16.70;;;;;;;7.81;71.11;98335.00;108008;1254;61353;-65
2023/03/11 09:00:25;;;;;;;24.40;17.50;;;;;;;7.76;71.37;98333.44;108237;1260;74864;-64
2023/03/11 09:02:54;;;;;;;24.10;17.70;;;;;;;7.72;71.53;98327.35;108037;1255;73350;-64
2023/03/11 09:05:24;;;;;;;22.50;17.30;;;;;;;7.75;71.62;98326.83;108100;1254;72937;-63
2023/03/11 09:07:53;;;;;;;22.30;15.80;;;;;;;7.78;71.70;98329.16;108097;1256;62289;-63
2023/03/11 09:10:21;;;;;;;24.50;17.50;;;;;;;7.74;71.71;98326.09;108061;1257;61337;-63
2023/03/11 09:12:50;;;;;;;23.30;16.50;;;;;;;7.68;71.74;98323.41;108064;1258;75449;-62
2023/03/11 09:15:21;;;;;;;24.40;17.90;;;;;;;7.62;71.84;98313.86;108089;1254;72590;-63
2023/03/11 09:17:49;;;;;;;24.10;17.90;;;;;;;7.59;72.05;98313.02;107971;1254;73400;-63
2023/03/11 09:20:21;;;;;;;25.70;18.90;;;;;;;7.52;72.28;98306.86;108026;1254;62012;-65
2023/03/11 09:22:50;;;;;;;25.60;17.80;;;;;;;7.48;72.45;98304.02;108019;1254;61215;-65
2023/03/11 09:25:19;;;;;;;23.80;18.00;;;;;;;7.43;72.67;98295.86;108026;1254;74870;-64
2023/03/11 09:27:48;;;;;;;25.40;18.90;;;;;;;7.40;72.84;98302.42;107965;1254;73103;-64
2023/03/11 09:30:17;;;;;;;27.00;19.50;;;;;;;7.39;73.10;98299.05;108020;1258;73615;-64
2023/03/11 09:32:46;;;;;;;26.90;19.90;;;;;;;7.35;73.40;98290.26;108071;1254;62365;-64
2023/03/11 09:35:15;;;;;;;27.60;19.50;;;;;;;7.36;73.56;98288.50;108100;1254;61531;-64
2023/03/11 09:37:44;;;;;;;25.50;18.90;;;;;;;7.35;73.79;98281.22;108092;1254;75221;-65
2023/03/11 09:40:20;;;;;;;29.60;20.90;;;;;;;7.35;74.05;98270.56;108055;1254;71912;-64
2023/03/11 09:42:49;;;;;;;31.70;21.70;;;;;;;7.34;74.34;98267.38;108094;1254;73450;-64
2023/03/11 09:45:20;;;;;;;27.50;20.90;;;;;;;7.36;74.52;98256.30;108054;1254;62375;-64
2023/03/11 09:48:33;;;;;;;29.60;20.60;;;;;;;7.40;74.68;98243.55;107937;1254;61306;-64
2023/03/11 09:51:26;;;;;;;28.90;20.40;;;;;;;7.45;74.91;98240.16;107518;1260;74193;-64
2023/03/11 09:54:02;;;;;;;29.40;20.90;;;;;;;7.49;75.12;98237.80;108065;1254;73031;-63
2023/03/11 09:56:32;;;;;;;30.60;22.60;;;;;;;7.54;75.33;98224.54;107976;1254;73686;-62
2023/03/11 09:59:06;;;;;;;30.60;21.90;;;;;;;7.56;75.51;98213.17;107975;1255;61465;-62
2023/03/11 10:01:38;;;;;;;29.30;20.90;;;;;;;7.60;75.66;98218.95;107816;1258;61121;-63
2023/03/11 10:04:10;;;;;;;28.80;21.00;;;;;;;7.65;75.66;98226.89;108057;1257;75379;-64
2023/03/11 10:06:40;;;;;;;31.40;22.60;;;;;;;7.68;75.81;98229.58;108049;1254;73621;-63
2023/03/11 10:09:24;;;;;;;31.40;23.20;;;;;;;7.70;75.89;98226.20;108003;1260;72903;-62
2023/03/11 10:12:15;;;;;;;30.60;22.90;;;;;;;7.70;76.02;98208.77;108113;1254;60149;-62
2023/03/11 10:14:59;;;;;;;33.10;24.00;;;;;;;7.69;76.17;98197.63;108040;1254;61093;-63
2023/03/11 10:18:00;;;;;;;35.60;26.90;;;;;;;7.70;76.41;98193.00;108075;1254;73872;-63
2023/03/11 10:20:37;;;;;;;39.30;26.70;;;;;;;7.69;76.50;98195.54;108027;1256;73969;-64
2023/03/11 10:23:05;;;;;;;38.20;27.90;;;;;;;7.70;76.64;98189.96;108109;1256;70938;-62
2023/03/11 10:25:46;;;;;;;39.00;28.60;;;;;;;7.72;76.72;98183.92;108029;1254;63022;-62
2023/03/11 10:28:17;;;;;;;35.80;26.90;;;;;;;7.77;76.77;98186.70;108102;1254;61241;-63
2023/03/11 10:30:54;;;;;;;35.20;25.80;;;;;;;7.81;76.81;98186.99;108105;1254;74497;-64
2023/03/11 10:33:31;;;;;;;37.20;26.40;;;;;;;7.85;76.80;98173.71;108066;1254;73276;-63
2023/03/11 10:36:03;;;;;;;38.90;28.30;;;;;;;7.86;76.95;98167.84;108094;1257;73186;-63
2023/03/11 10:38:34;;;;;;;39.00;29.00;;;;;;;7.86;76.94;98162.38;108090;1257;62410;-62
2023/03/11 10:41:06;;;;;;;37.20;26.70;;;;;;;7.86;77.15;98156.54;108044;1254;61134;-62
2023/03/11 10:43:44;;;;;;;40.20;30.10;;;;;;;7.89;77.27;98154.56;108054;1254;74966;-64
2023/03/11 10:46:22;;;;;;;36.30;27.20;;;;;;;7.96;77.40;98150.59;108095;1254;71297;-62
2023/03/11 10:48:51;;;;;;;37.60;27.10;;;;;;;8.04;77.53;98145.73;108028;1257;73364;-63
2023/03/11 10:51:32;;;;;;;35.60;26.60;;;;;;;8.11;77.43;98134.31;107980;1254;61867;-62
2023/03/11 10:54:01;;;;;;;35.00;27.10;;;;;;;8.18;77.47;98133.83;108054;1257;61205;-62
2023/03/11 10:56:34;;;;;;;31.90;23.50;;;;;;;8.22;77.58;98131.77;108085;1257;73801;-63
2023/03/11 10:59:05;;;;;;;27.90;21.50;;;;;;;8.28;77.60;98123.84;108004;1254;72789;-63
2023/03/11 11:01:34;;;;;;;29.80;22.80;;;;;;;8.32;77.53;98120.55;108010;1254;73227;-62
2023/03/11 11:04:02;;;;;;;26.50;20.40;;;;;;;8.35;77.60;98115.95;108010;1256;61432;-64
2023/03/11 11:06:37;;;;;;;28.70;21.50;;;;;;;8.40;77.59;98108.10;108061;1254;61228;-63
2023/03/11 11:09:11;;;;;;;26.50;19.70;;;;;;;8.42;77.47;98095.54;108068;1254;73798;-63
2023/03/11 11:11:39;;;;;;;25.20;18.20;;;;;;;8.49;77.58;98090.54;108051;1254;71896;-63
2023/03/11 11:14:09;;;;;;;28.60;21.00;;;;;;;8.52;77.51;98082.33;108134;1254;72807;-63
2023/03/11 11:16:37;;;;;;;28.50;20.50;;;;;;;8.54;77.50;98079.30;108069;1254;62895;-64
2023/03/11 11:19:13;;;;;;;28.10;20.80;;;;;;;8.60;77.70;98078.55;108095;1254;61099;-63
2023/03/11 11:21:44;;;;;;;30.00;21.50;;;;;;;8.66;77.66;98066.91;108137;1254;74589;-62
2023/03/11 11:24:21;;;;;;;31.10;21.30;;;;;;;8.71;77.66;98063.94;107996;1254;72112;-63
2023/03/11 11:27:04;;;;;;;28.80;21.10;;;;;;;8.74;77.67;98052.34;108075;1254;71924;-63
2023/03/11 11:29:34;;;;;;;31.90;22.40;;;;;;;8.78;77.67;98049.07;108064;1254;60823;-62
2023/03/11 11:32:17;;;;;;;30.10;21.20;;;;;;;8.78;77.70;98045.96;107989;1254;61230;-63
2023/03/11 11:35:13;;;;;;;30.40;21.20;;;;;;;8.80;77.75;98043.94;108113;1254;74659;-62
2023/03/11 11:37:47;;;;;;;28.40;20.30;;;;;;;8.81;77.87;98035.66;108098;1254;74015;-63
2023/03/11 11:40:29;;;;;;;29.20;20.90;;;;;;;8.81;77.84;98028.05;108066;1254;72892;-64